Lockport, Kentucky
Current Conditions -  °F | °C
As of 5:53 PM on Friday 28 Nov 2014 (Local Time) from KFFT Reporting Station
Clear Clear  
Wind Chill: 27°   Ceiling: Unl
Heat Index: 34°   Visibility: 10mi
Dew Point: 18°   Wind: 8mph
Humidity: 52%   Direction: 150°SSE
Pressure: 30.19"   Gusts: NA
Location:  38.44°N, 84.97°W
Report Text: KFFT 282253Z AUTO 15007KT 10SM CLR 01/M08 A3019 RMK AO2 SLP232 T00111078
Loading
Personal Weather Stations






























Interactive Weather Map New forecast layout! Learn more

10-Day Weather Forecast

Advertisements
Track Severe Weather on mobile